METAR UND TAF INFORMATION
OTHH 151400Z 05009KT CAVOK 34/18 Q1000 NOSIG

 FLUGHAFENKARTE

 RUNWAY INFORMATION

 AIRPORT FREQUENCIES

 AIRPORT NEAR NAVIGATION AIDS